Aviation Digital Data Service (ADDS)

Output produced by METARs form (2151 UTC 17 November 2018)
found at http://www.aviationweather.gov/metar/data/
 
METAR text: EPKT 172130Z 06007KT CAVOK M03/M08 Q1034
Conditions at: EPKT (KATOWICE/PYRZOWI, PL) observed 2130 UTC 17 November 2018
Temperature: -3.0°C (27°F)
Dewpoint: -8.0°C (18°F) [RH = 68%]
Pressure (altimeter): 30.53 inches Hg (1034.0 mb)
Winds: from the ENE (60 degrees) at 8 MPH (7 knots; 3.6 m/s)
Visibility: 6 or more miles (10+ km)
Ceiling: ceiling and visibility are OK
Clouds: unknown
Weather: no significant weather observed at this time

METAR text: EPKT 172100Z 06005KT CAVOK M03/M09 Q1034
Conditions at: EPKT (KATOWICE/PYRZOWI, PL) observed 2100 UTC 17 November 2018
Temperature: -3.0°C (27°F)
Dewpoint: -9.0°C (16°F) [RH = 63%]
Pressure (altimeter): 30.53 inches Hg (1034.0 mb)
Winds: from the ENE (60 degrees) at 6 MPH (5 knots; 2.6 m/s)
Visibility: 6 or more miles (10+ km)
Ceiling: ceiling and visibility are OK
Clouds: unknown
Weather: no significant weather observed at this time

Forecast for: EPKT (KATOWICE/PYRZOWI, PL)
Text: TAF EPKT 171730Z 1718/1818 05006KT CAVOK
Forecast period: 1800 UTC 17 November 2018 to 1600 UTC 18 November 2018
Forecast type: FROM: standard forecast or significant change
Winds: from the NE (50 degrees) at 7 MPH (6 knots; 3.1 m/s)
Visibility: 6 or more miles 10+ km)
Ceiling: unknown
Clouds: missing
Weather: NSW  (no significant weather)
Text: BECMG 1816/1818 BKN012
Forecast period: 1600 to 1800 UTC 18 November 2018
Forecast type: BECOMING: Conditions expected to become as follows by 1800 UTC 18 November 2018
Winds: from the NE (50 degrees) at 7 MPH (6 knots; 3.1 m/s)
Visibility: 6 or more miles 10+ km)
Ceiling: 1200 feet AGL
Clouds: broken clouds at 1200 feet AGL
Weather: NSW  (no significant weather)
Text: TEMPO 1817/1818 2500 SN BR BKN007
Forecast period: 1700 to 1800 UTC 18 November 2018
Forecast type: TEMPORARY: The following changes expected for less than half the time period
Visibility: 1.55 miles (2.49 km)
Ceiling: 700 feet AGL
Clouds: broken clouds at 700 feet AGL
Weather: SN BR  (moderate snow, mist)